createdAt,value
2023-02-23T00:02:05.941Z,25.65
2023-02-23T00:04:34.737Z,28.00
2023-02-23T00:07:01.963Z,23.33
2023-02-23T00:09:35.547Z,25.35
2023-02-23T00:12:08.141Z,32.65
2023-02-23T00:14:37.868Z,30.67
2023-02-23T00:17:10.892Z,25.83
2023-02-23T00:19:38.014Z,29.75
2023-02-23T00:22:05.147Z,28.33
2023-02-23T00:24:32.532Z,23.20
2023-02-23T00:27:00.041Z,32.28
2023-02-23T00:29:49.501Z,31.33
2023-02-23T00:32:20.209Z,24.77
2023-02-23T00:34:50.850Z,24.55
2023-02-23T00:37:19.487Z,26.80
2023-02-23T00:39:46.574Z,24.67
2023-02-23T00:42:13.835Z,22.38
2023-02-23T00:44:40.918Z,34.47
2023-02-23T00:47:08.373Z,33.15
2023-02-23T00:49:35.743Z,29.02
2023-02-23T00:52:02.857Z,28.38
2023-02-23T00:54:30.171Z,28.10
2023-02-23T00:56:57.269Z,26.30
2023-02-23T00:59:24.614Z,25.45
2023-02-23T01:01:52.617Z,22.95
2023-02-23T01:04:19.794Z,28.08
2023-02-23T01:06:46.934Z,22.90
2023-02-23T01:09:27.367Z,24.27
2023-02-23T01:14:24.522Z,19.65
2023-02-23T01:19:18.842Z,20.80
2023-02-23T01:21:46.214Z,22.25
2023-02-23T01:24:13.768Z,23.25
2023-02-23T01:26:45.763Z,25.50
2023-02-23T01:29:17.317Z,22.52
2023-02-23T01:31:51.236Z,30.55
2023-02-23T01:36:49.778Z,21.85
2023-02-23T01:41:48.583Z,21.80
2023-02-23T01:49:20.758Z,18.85
2023-02-23T01:51:55.853Z,20.25
2023-02-23T01:54:31.402Z,24.60
2023-02-23T01:57:03.258Z,25.45
2023-02-23T01:59:40.823Z,22.55
2023-02-23T02:02:08.504Z,22.15
2023-02-23T02:04:44.874Z,25.20
2023-02-23T02:07:23.231Z,21.88
2023-02-23T02:10:13.767Z,23.17
2023-02-23T02:12:52.177Z,20.15
2023-02-23T02:15:26.157Z,24.67
2023-02-23T02:21:24.706Z,22.85
2023-02-23T02:24:42.278Z,24.63
2023-02-23T02:27:50.114Z,17.02
2023-02-23T02:30:30.582Z,22.35
2023-02-23T02:33:11.282Z,21.17
2023-02-23T02:36:02.185Z,23.50
2023-02-23T02:38:54.173Z,21.63
2023-02-23T02:41:35.937Z,20.25
2023-02-23T02:44:36.377Z,21.17
2023-02-23T02:47:12.677Z,18.23
2023-02-23T02:50:06.902Z,27.27
2023-02-23T02:52:47.899Z,19.67
2023-02-23T02:55:23.958Z,23.13
2023-02-23T02:57:56.805Z,25.13
2023-02-23T03:00:59.113Z,25.70
2023-02-23T03:03:55.757Z,20.75
2023-02-23T03:06:50.641Z,28.17
2023-02-23T03:10:17.062Z,25.60
2023-02-23T03:13:32.613Z,24.55
2023-02-23T03:16:49.602Z,22.75
2023-02-23T03:19:49.551Z,22.40
2023-02-23T03:22:56.895Z,22.48
2023-02-23T03:25:53.675Z,21.67
2023-02-23T03:28:49.515Z,22.67
2023-02-23T03:32:16.626Z,28.05
2023-02-23T03:35:15.318Z,27.75
2023-02-23T03:38:27.961Z,23.50
2023-02-23T03:41:17.622Z,23.35
2023-02-23T03:44:18.371Z,25.55
2023-02-23T03:47:06.608Z,20.92
2023-02-23T03:49:59.388Z,23.92
2023-02-23T03:52:58.489Z,19.67
2023-02-23T03:55:53.089Z,11.45
2023-02-23T03:59:05.965Z,22.42
2023-02-23T04:01:54.092Z,20.90
2023-02-23T04:04:44.310Z,28.42
2023-02-23T04:07:35.167Z,25.67
2023-02-23T04:10:23.566Z,26.08
2023-02-23T04:13:15.265Z,24.13
2023-02-23T04:15:59.165Z,26.70
2023-02-23T04:18:31.199Z,21.20
2023-02-23T04:20:59.279Z,24.63
2023-02-23T04:24:00.656Z,24.00
2023-02-23T04:26:27.739Z,27.15
2023-02-23T04:28:54.812Z,26.63
2023-02-23T04:31:25.332Z,29.25
2023-02-23T04:33:52.816Z,24.15
2023-02-23T04:36:20.016Z,27.80
2023-02-23T04:38:47.104Z,24.15
2023-02-23T04:41:14.203Z,24.98
2023-02-23T04:43:41.296Z,25.83
2023-02-23T04:46:08.578Z,25.17
2023-02-23T04:48:36.211Z,25.73
2023-02-23T04:53:30.884Z,20.88
2023-02-23T04:55:58.178Z,24.38
2023-02-23T04:58:25.408Z,23.17
2023-02-23T05:00:52.543Z,23.35
2023-02-23T05:03:19.642Z,25.10
2023-02-23T05:06:49.374Z,24.63
2023-02-23T05:11:26.327Z,20.92
2023-02-23T05:13:54.408Z,18.00
2023-02-23T05:16:21.840Z,22.45
2023-02-23T05:18:49.567Z,38.97
2023-02-23T05:23:44.076Z,25.30
2023-02-23T05:26:13.227Z,22.25
2023-02-23T05:28:43.192Z,23.42
2023-02-23T05:31:11.095Z,25.23
2023-02-23T05:33:45.913Z,24.42
2023-02-23T05:40:23.049Z,30.45
2023-02-23T05:42:50.173Z,26.95
2023-02-23T05:45:17.517Z,31.33
2023-02-23T05:47:44.615Z,28.60
2023-02-23T05:50:12.213Z,26.55
2023-02-23T05:52:42.096Z,31.83
2023-02-23T05:55:11.985Z,30.92
2023-02-23T05:57:41.307Z,30.13
2023-02-23T06:00:10.275Z,27.33
2023-02-23T06:02:37.802Z,23.52
2023-02-23T06:05:06.183Z,27.52
2023-02-23T06:07:33.328Z,26.73
2023-02-23T06:10:00.414Z,26.77
2023-02-23T06:12:27.596Z,28.88
2023-02-23T06:14:54.854Z,30.85
2023-02-23T06:17:22.350Z,33.20
2023-02-23T06:19:49.643Z,29.52
2023-02-23T06:23:35.362Z,26.35
2023-02-23T06:30:13.005Z,28.95
2023-02-23T06:35:08.699Z,27.40
2023-02-23T06:37:36.568Z,31.75
2023-02-23T06:40:06.060Z,32.20
2023-02-23T06:42:36.114Z,31.05
2023-02-23T06:45:05.294Z,30.30
2023-02-23T06:47:32.553Z,34.55
2023-02-23T06:50:00.218Z,28.67
2023-02-23T06:52:27.299Z,30.65
2023-02-23T06:54:54.388Z,29.90
2023-02-23T06:57:21.886Z,27.08
2023-02-23T06:59:49.414Z,29.08
2023-02-23T07:02:18.550Z,32.13
2023-02-23T07:08:59.021Z,27.27
2023-02-23T07:11:26.185Z,30.45
2023-02-23T07:13:53.320Z,29.58
2023-02-23T07:16:20.608Z,34.35
2023-02-23T07:18:47.728Z,35.75
2023-02-23T07:21:14.979Z,33.17
2023-02-23T07:23:42.096Z,40.80
2023-02-23T07:26:09.923Z,28.88
2023-02-23T07:28:38.248Z,32.78
2023-02-23T07:31:05.656Z,27.35
2023-02-23T07:33:33.034Z,24.25
2023-02-23T07:36:00.182Z,30.77
2023-02-23T07:38:27.607Z,33.90
2023-02-23T07:40:56.481Z,30.27
2023-02-23T07:43:24.381Z,30.95
2023-02-23T07:45:52.072Z,29.63
2023-02-23T07:48:21.102Z,29.52
2023-02-23T07:50:48.848Z,28.67
2023-02-23T07:53:16.189Z,34.28
2023-02-23T07:55:43.321Z,31.42
2023-02-23T07:58:10.646Z,29.52
2023-02-23T08:00:40.202Z,31.95
2023-02-23T08:03:08.013Z,34.90
2023-02-23T08:05:36.145Z,38.75
2023-02-23T08:08:03.332Z,35.10
2023-02-23T08:10:30.594Z,32.33
2023-02-23T08:12:59.138Z,32.55
2023-02-23T08:15:26.349Z,33.38
2023-02-23T08:17:53.430Z,38.53
2023-02-23T08:20:20.565Z,37.55
2023-02-23T08:22:50.019Z,37.25
2023-02-23T08:25:18.211Z,30.75
2023-02-23T08:27:45.521Z,40.80
2023-02-23T08:30:14.459Z,33.75
2023-02-23T08:32:41.900Z,38.08
2023-02-23T08:35:11.245Z,31.42
2023-02-23T08:37:38.408Z,19.48
2023-02-23T08:40:06.497Z,24.65
2023-02-23T08:42:33.639Z,31.83
2023-02-23T08:45:01.703Z,25.10
2023-02-23T08:47:30.073Z,14.95
2023-02-23T08:49:57.170Z,13.45
2023-02-23T08:52:25.728Z,11.90
2023-02-23T08:54:52.802Z,11.95
2023-02-23T08:57:20.176Z,10.77
2023-02-23T08:59:47.699Z,11.48
2023-02-23T09:02:15.915Z,9.50
2023-02-23T09:04:43.756Z,11.43
2023-02-23T09:07:17.433Z,14.68
2023-02-23T09:09:44.664Z,13.13
2023-02-23T09:12:11.926Z,15.68
2023-02-23T09:14:39.221Z,15.07
2023-02-23T09:17:06.632Z,12.85
2023-02-23T09:19:33.906Z,13.80
2023-02-23T09:22:01.046Z,13.98
2023-02-23T09:24:28.165Z,11.82
2023-02-23T09:26:55.320Z,13.23
2023-02-23T09:29:23.207Z,13.38
2023-02-23T09:31:53.202Z,10.65
2023-02-23T09:34:23.020Z,9.60
2023-02-23T09:36:50.160Z,14.60
2023-02-23T09:39:20.368Z,13.38
2023-02-23T09:42:10.618Z,13.88
2023-02-23T09:47:51.403Z,11.23
2023-02-23T09:50:25.648Z,14.35
2023-02-23T09:53:07.311Z,10.20
2023-02-23T09:55:35.538Z,18.48
2023-02-23T09:58:40.559Z,12.05
2023-02-23T10:01:35.115Z,11.75
2023-02-23T10:04:28.988Z,17.38
2023-02-23T10:07:12.516Z,13.25
2023-02-23T10:10:10.687Z,9.73
2023-02-23T10:13:15.054Z,7.65
2023-02-23T10:16:15.831Z,9.23
2023-02-23T10:19:01.908Z,8.68
2023-02-23T10:21:36.219Z,8.40
2023-02-23T10:24:20.883Z,7.75
2023-02-23T10:26:54.896Z,7.00
2023-02-23T10:29:35.800Z,4.97
2023-02-23T10:32:42.067Z,5.00
2023-02-23T10:35:21.772Z,6.10
2023-02-23T10:37:51.902Z,5.57
2023-02-23T10:40:25.319Z,5.53
2023-02-23T10:45:25.839Z,5.20
2023-02-23T10:48:08.333Z,6.43
2023-02-23T10:50:41.008Z,7.75
2023-02-23T10:53:25.113Z,6.45
2023-02-23T10:56:23.520Z,7.10
2023-02-23T10:58:55.728Z,7.28
2023-02-23T11:01:36.538Z,6.10
2023-02-23T11:04:32.465Z,8.07
2023-02-23T11:07:23.680Z,9.20
2023-02-23T11:09:52.980Z,8.07
2023-02-23T11:12:41.903Z,7.88
2023-02-23T11:15:49.148Z,9.18
2023-02-23T11:18:26.342Z,6.35
2023-02-23T11:20:55.030Z,9.65
2023-02-23T11:23:34.776Z,9.07
2023-02-23T11:26:14.839Z,10.23
2023-02-23T11:28:44.309Z,9.13
2023-02-23T11:31:28.901Z,7.25
2023-02-23T11:33:57.701Z,7.28
2023-02-23T11:36:24.727Z,7.75
2023-02-23T11:39:09.469Z,7.88
2023-02-23T11:41:37.531Z,6.65
2023-02-23T11:44:06.436Z,7.13
2023-02-23T11:46:39.330Z,9.15
2023-02-23T11:49:23.726Z,9.90
2023-02-23T11:51:54.934Z,10.23
2023-02-23T11:54:33.917Z,10.00
2023-02-23T11:57:04.584Z,9.27
2023-02-23T11:59:40.727Z,11.18
2023-02-23T12:02:18.153Z,8.68
2023-02-23T12:04:50.412Z,10.45
2023-02-23T12:07:39.034Z,6.50
2023-02-23T12:10:17.634Z,7.13
2023-02-23T12:13:07.953Z,10.00
2023-02-23T12:16:06.720Z,10.27
2023-02-23T12:19:04.523Z,9.48
2023-02-23T12:21:44.000Z,10.38
2023-02-23T12:24:35.722Z,6.68
2023-02-23T12:27:14.448Z,10.50
2023-02-23T12:29:57.106Z,7.35
2023-02-23T12:32:48.331Z,8.15
2023-02-23T12:35:38.274Z,8.02
2023-02-23T12:38:33.515Z,5.95
2023-02-23T12:41:13.219Z,7.05
2023-02-23T12:44:19.068Z,8.73
2023-02-23T12:46:52.185Z,5.75
2023-02-23T12:49:49.369Z,6.88
2023-02-23T12:52:30.988Z,8.95
2023-02-23T12:54:58.346Z,8.95
2023-02-23T12:58:02.443Z,8.63
2023-02-23T13:00:52.002Z,6.15
2023-02-23T13:03:36.838Z,10.73
2023-02-23T13:06:39.938Z,8.32
2023-02-23T13:09:30.543Z,6.05
2023-02-23T13:12:19.253Z,10.32
2023-02-23T13:15:45.289Z,8.48
2023-02-23T13:18:28.556Z,8.50
2023-02-23T13:21:33.570Z,8.80
2023-02-23T13:24:24.574Z,9.60
2023-02-23T13:27:27.460Z,5.65
2023-02-23T13:29:59.353Z,7.63
2023-02-23T13:32:36.402Z,10.18
2023-02-23T13:35:07.706Z,6.22
2023-02-23T13:37:54.601Z,5.35
2023-02-23T13:40:50.215Z,6.28
2023-02-23T13:43:49.431Z,7.03
2023-02-23T13:46:31.743Z,6.32
2023-02-23T13:49:35.308Z,5.72
2023-02-23T13:52:33.357Z,6.50
2023-02-23T13:55:05.725Z,9.18
2023-02-23T13:57:43.893Z,7.43
2023-02-23T14:00:22.713Z,9.90
2023-02-23T14:02:51.057Z,7.97
2023-02-23T14:05:25.066Z,7.88
2023-02-23T14:08:02.502Z,10.18
2023-02-23T14:10:40.872Z,8.30
2023-02-23T14:13:14.207Z,7.03
2023-02-23T14:16:08.792Z,8.27
2023-02-23T14:18:54.168Z,9.35
2023-02-23T14:21:31.835Z,12.65
2023-02-23T14:24:14.387Z,7.75
2023-02-23T14:26:46.651Z,12.95
2023-02-23T14:29:19.324Z,8.82
2023-02-23T14:32:15.390Z,8.40
2023-02-23T14:34:57.173Z,5.90
2023-02-23T14:37:56.271Z,8.43
2023-02-23T14:40:33.807Z,7.38
2023-02-23T14:43:04.470Z,11.27
2023-02-23T14:45:38.159Z,7.03
2023-02-23T14:48:13.504Z,7.22
2023-02-23T14:50:41.835Z,7.50
2023-02-23T14:53:22.329Z,6.32
2023-02-23T14:55:49.971Z,9.68
2023-02-23T14:58:35.367Z,6.38
2023-02-23T15:01:02.454Z,8.43
2023-02-23T15:03:30.520Z,7.93
2023-02-23T15:06:01.217Z,6.93
2023-02-23T15:08:32.073Z,8.15
2023-02-23T15:11:14.582Z,9.93
2023-02-23T15:13:49.104Z,8.35
2023-02-23T15:16:34.469Z,9.85
2023-02-23T15:19:05.428Z,8.32
2023-02-23T15:21:32.958Z,7.25
2023-02-23T15:24:11.735Z,7.93
2023-02-23T15:26:41.499Z,11.35
2023-02-23T15:29:13.689Z,8.43
2023-02-23T15:31:52.757Z,7.32
2023-02-23T15:34:30.167Z,9.13
2023-02-23T15:37:05.836Z,7.10
2023-02-23T15:39:40.209Z,9.30
2023-02-23T15:42:14.139Z,6.80
2023-02-23T15:44:44.874Z,8.55
2023-02-23T15:47:28.728Z,8.95
2023-02-23T15:50:36.982Z,7.25
2023-02-23T15:53:19.798Z,7.70
2023-02-23T15:55:48.736Z,8.43
2023-02-23T15:58:30.464Z,10.15
2023-02-23T16:01:06.457Z,7.30
2023-02-23T16:03:38.366Z,8.52
2023-02-23T16:06:27.553Z,8.73
2023-02-23T16:09:06.195Z,10.30
2023-02-23T16:11:40.495Z,7.90
2023-02-23T16:14:18.006Z,14.35
2023-02-23T16:17:01.392Z,9.15
2023-02-23T16:19:41.927Z,15.15
2023-02-23T16:22:21.611Z,7.47
2023-02-23T16:25:01.906Z,8.57
2023-02-23T16:27:30.893Z,9.18
2023-02-23T16:30:23.660Z,9.60
2023-02-23T16:35:51.538Z,7.93
2023-02-23T16:39:02.114Z,9.65
2023-02-23T16:41:35.456Z,12.00
2023-02-23T16:44:07.043Z,13.55
2023-02-23T16:48:46.432Z,11.50
2023-02-23T16:51:21.084Z,10.57
2023-02-23T16:53:48.662Z,9.35
2023-02-23T16:56:22.274Z,10.23
2023-02-23T17:01:23.844Z,11.18
2023-02-23T17:03:53.129Z,10.73
2023-02-23T17:06:23.006Z,12.90
2023-02-23T17:08:58.264Z,12.15
2023-02-23T17:11:27.769Z,12.50
2023-02-23T17:13:55.126Z,13.15
2023-02-23T17:16:24.429Z,13.45
2023-02-23T17:18:51.944Z,10.35
2023-02-23T17:21:24.042Z,12.27
2023-02-23T17:23:52.961Z,9.90
2023-02-23T17:26:24.637Z,14.45
2023-02-23T17:28:52.859Z,10.88
2023-02-23T17:31:22.852Z,15.63
2023-02-23T17:33:52.950Z,14.48
2023-02-23T17:36:20.565Z,13.45
2023-02-23T17:38:50.917Z,16.33
2023-02-23T17:41:20.573Z,17.45
2023-02-23T17:43:47.999Z,15.75
2023-02-23T17:46:15.348Z,14.95
2023-02-23T17:48:49.424Z,14.13
2023-02-23T17:51:17.135Z,16.65
2023-02-23T17:53:46.534Z,15.80
2023-02-23T17:56:16.186Z,16.05
2023-02-23T17:58:43.597Z,13.57
2023-02-23T18:01:11.309Z,25.65
2023-02-23T18:03:39.020Z,18.38
2023-02-23T18:06:12.518Z,13.57
2023-02-23T18:08:42.550Z,17.05
2023-02-23T18:11:10.803Z,16.15
2023-02-23T18:13:38.917Z,10.93
2023-02-23T18:16:10.996Z,14.75
2023-02-23T18:18:46.984Z,75.57
2023-02-23T18:21:19.177Z,53.75
2023-02-23T18:23:49.697Z,65.00
2023-02-23T18:26:21.968Z,47.05
2023-02-23T18:28:50.016Z,63.58
2023-02-23T18:31:28.461Z,51.55
2023-02-23T18:34:15.386Z,28.45
2023-02-23T18:36:43.248Z,12.52
2023-02-23T18:39:41.846Z,16.98
2023-02-23T18:42:09.027Z,12.43
2023-02-23T18:44:36.253Z,14.18
2023-02-23T18:47:03.989Z,19.42
2023-02-23T18:49:31.243Z,17.55
2023-02-23T18:52:00.381Z,15.15
2023-02-23T18:54:28.307Z,15.25
2023-02-23T18:56:56.244Z,17.17
2023-02-23T18:59:23.597Z,16.27
2023-02-23T19:01:50.851Z,24.52
2023-02-23T19:04:18.606Z,17.38
2023-02-23T19:06:47.337Z,16.85
2023-02-23T19:09:19.751Z,17.60
2023-02-23T19:11:51.971Z,19.00
2023-02-23T19:14:32.958Z,19.58
2023-02-23T19:17:04.135Z,17.95
2023-02-23T19:19:31.436Z,16.10
2023-02-23T19:21:58.989Z,18.25
2023-02-23T19:24:26.661Z,17.73
2023-02-23T19:29:21.063Z,14.80
2023-02-23T19:31:50.300Z,15.48
2023-02-23T19:34:17.858Z,19.70
2023-02-23T19:36:47.324Z,18.75
2023-02-23T19:39:15.689Z,18.27
2023-02-23T19:41:47.303Z,17.25
2023-02-23T19:44:14.976Z,17.63
2023-02-23T19:46:43.033Z,17.48
2023-02-23T19:49:10.917Z,19.95
2023-02-23T19:51:38.395Z,21.38
2023-02-23T19:56:35.279Z,18.50
2023-02-23T19:59:03.726Z,18.45
2023-02-23T20:01:31.411Z,19.42
2023-02-23T20:06:41.579Z,26.52
2023-02-23T20:09:09.776Z,37.47
2023-02-23T20:11:37.338Z,30.08
2023-02-23T20:14:05.853Z,34.45
2023-02-23T20:16:34.595Z,38.45
2023-02-23T20:19:03.853Z,30.15
2023-02-23T20:21:32.611Z,23.90
2023-02-23T20:24:03.366Z,31.77
2023-02-23T20:26:35.879Z,30.88
2023-02-23T20:29:11.718Z,39.72
2023-02-23T20:31:42.127Z,28.58
2023-02-23T20:34:11.306Z,22.48
2023-02-23T20:36:42.597Z,23.48
2023-02-23T20:39:10.887Z,23.02
2023-02-23T20:41:43.642Z,20.70
2023-02-23T20:44:13.420Z,21.30
2023-02-23T20:46:45.157Z,14.32
2023-02-23T20:49:13.419Z,21.90
2023-02-23T20:51:44.869Z,24.60
2023-02-23T20:54:13.719Z,19.58
2023-02-23T20:56:43.048Z,24.35
2023-02-23T20:59:15.750Z,20.85
2023-02-23T21:01:45.456Z,20.42
2023-02-23T21:04:13.865Z,17.63
2023-02-23T21:06:41.218Z,21.60
2023-02-23T21:10:23.436Z,20.10
2023-02-23T21:12:50.663Z,22.30
2023-02-23T21:16:20.765Z,20.95
2023-02-23T21:19:04.268Z,20.25
2023-02-23T21:21:43.579Z,21.08
2023-02-23T21:24:12.415Z,18.85
2023-02-23T21:26:39.801Z,23.50
2023-02-23T21:29:15.135Z,18.15
2023-02-23T21:31:47.018Z,21.63
2023-02-23T21:34:18.959Z,23.00
2023-02-23T21:36:47.943Z,21.50
2023-02-23T21:39:15.186Z,21.15
2023-02-23T21:41:42.479Z,19.08
2023-02-23T21:44:11.402Z,19.67
2023-02-23T21:46:40.669Z,18.35
2023-02-23T21:49:09.982Z,19.88
2023-02-23T21:51:37.792Z,21.63
2023-02-23T21:54:06.023Z,21.70
2023-02-23T21:56:35.069Z,22.88
2023-02-23T21:59:03.788Z,23.85
2023-02-23T22:01:37.961Z,24.17
2023-02-23T22:04:09.242Z,25.08
2023-02-23T22:06:43.873Z,21.17
2023-02-23T22:09:15.786Z,23.90
2023-02-23T22:11:47.432Z,22.00
2023-02-23T22:14:17.074Z,23.55
2023-02-23T22:16:45.673Z,23.50
2023-02-23T22:19:13.690Z,24.23
2023-02-23T22:21:42.512Z,26.27
2023-02-23T22:24:12.683Z,25.67
2023-02-23T22:26:43.176Z,30.38
2023-02-23T22:29:13.650Z,26.23
2023-02-23T22:31:41.042Z,22.27
2023-02-23T22:34:08.630Z,22.50
2023-02-23T22:36:36.408Z,20.92
2023-02-23T22:39:18.921Z,24.83
2023-02-23T22:41:48.313Z,23.02
2023-02-23T22:44:21.673Z,20.02
2023-02-23T22:46:49.495Z,17.67
2023-02-23T22:49:20.260Z,17.92
2023-02-23T22:51:48.080Z,15.20
2023-02-23T22:54:15.873Z,19.92
2023-02-23T22:56:43.198Z,16.70
2023-02-23T22:59:11.215Z,24.52
2023-02-23T23:01:40.171Z,46.30
2023-02-23T23:04:10.964Z,17.58
2023-02-23T23:06:42.659Z,14.25
2023-02-23T23:09:12.698Z,14.07
2023-02-23T23:11:44.303Z,15.18
2023-02-23T23:14:13.288Z,14.07
2023-02-23T23:16:48.255Z,22.05
2023-02-23T23:19:25.795Z,15.82
2023-02-23T23:22:00.714Z,13.38
2023-02-23T23:24:28.014Z,16.25
2023-02-23T23:26:56.846Z,12.57
2023-02-23T23:29:25.916Z,13.55
2023-02-23T23:31:54.044Z,14.48
2023-02-23T23:34:21.889Z,12.82
2023-02-23T23:36:50.478Z,14.13
2023-02-23T23:39:22.979Z,13.10
2023-02-23T23:41:51.068Z,14.05
2023-02-23T23:44:23.074Z,15.95
2023-02-23T23:46:51.535Z,19.05
2023-02-23T23:49:25.962Z,17.65
2023-02-23T23:51:56.732Z,24.65
2023-02-23T23:54:29.147Z,26.70
2023-02-23T23:56:58.821Z,19.92
2023-02-23T23:59:28.039Z,17.67
